PDT,Max TemperatureF,Mean TemperatureF,Min TemperatureF,Max Dew PointF,MeanDew PointF,Min DewpointF,Max Humidity, Mean Humidity, Min Humidity, Max Sea Level PressureIn, Mean Sea Level PressureIn, Min Sea Level PressureIn, Max VisibilityMiles, Mean VisibilityMiles, Min VisibilityMiles, Max Wind SpeedMPH, Mean Wind SpeedMPH, Max Gust SpeedMPH,PrecipitationIn, CloudCover, Events, WindDirDegrees
2012-10-1,92,82,71,37,29,21,73,41,8,30.07,30.01,29.96,10,10,10,17,8,24,0.00,0,,359
2012-10-2,91,82,72,36,29,20,27,18,8,29.97,29.93,29.89,10,10,10,21,10,25,0.00,0,,325
2012-10-3,82,72,62,44,33,26,52,34,16,30.02,29.96,29.92,10,10,10,24,13,40,0.00,0,,202
2012-10-4,78,68,58,37,30,19,39,29,18,30.24,30.06,30.01,10,10,10,21,11,29,0.00,0,,272
2012-10-5,68,61,53,48,38,32,80,56,32,30.13,30.06,30.01,10,10,10,43,20,55,0.00,0,,348
2012-10-6,72,61,49,46,41,36,84,59,33,30.11,29.98,29.92,10,10,10,31,15,72,0.00,0,,351
2012-10-7,76,64,51,48,44,35,83,50,17,29.95,29.92,29.89,10,10,10,28,11,31,0.00,0,,309
2012-10-8,71,61,51,46,42,37,71,54,36,29.98,29.95,29.91,10,10,10,17,9,21,0.00,0,,309
2012-10-9,66,57,48,48,45,39,100,70,40,30.07,29.98,29.92,10,8,0,22,12,26,0.00,3,Fog,217
2012-10-10,59,52,45,48,43,37,100,74,47,30.04,29.96,29.89,10,6,0,24,11,33,0.00,4,Fog,189
2012-10-11,56,49,42,43,41,38,100,76,51,30.00,29.93,29.86,10,5,0,15,8,21,T,5,Fog-Rain,212
2012-10-12,51,46,41,45,41,39,96,84,71,30.22,30.07,29.93,10,6,0,29,12,35,0.00,7,Fog,259
2012-10-13,73,59,44,42,40,38,89,59,29,30.22,30.16,30.11,10,10,10,26,10,29,0.00,0,,12
2012-10-14,75,67,58,40,35,30,63,42,20,30.18,30.12,30.06,10,10,10,24,10,32,0.00,0,,54
2012-10-15,78,68,58,36,31,25,45,32,18,30.13,30.01,29.94,10,10,10,17,10,23,0.00,0,,1
2012-10-16,76,68,60,49,38,23,64,42,20,30.02,29.92,29.86,10,10,9,30,16,35,0.00,0,,343
2012-10-17,80,70,59,50,37,29,69,43,17,29.97,29.91,29.86,10,10,10,32,14,36,0.00,0,,60
2012-10-18,79,70,61,55,38,25,78,46,13,30.06,30.02,29.97,10,10,10,17,10,24,0.00,0,,108
2012-10-19,74,67,60,46,41,29,60,43,26,30.03,29.97,29.90,10,10,10,30,14,38,0.00,0,,349
2012-10-20,66,59,52,52,49,31,100,65,30,29.99,29.87,29.81,10,4,0,25,13,31,0.00,3,Fog,236
2012-10-21,62,56,49,52,48,46,100,80,60,29.98,29.92,29.83,10,5,0,21,12,26,0.00,6,Fog,191
2012-10-22,56,50,44,47,45,42,100,81,61,30.01,29.93,29.82,10,4,0,29,16,37,0.02,6,Fog-Rain,197
2012-10-23,52,44,36,43,34,25,100,71,41,30.01,29.96,29.92,10,7,0,24,15,29,0.00,3,Fog,325
2012-10-24,50,44,37,36,34,30,92,71,50,30.13,30.05,29.95,10,8,1,30,16,37,0.00,4,,357
2012-10-25,56,48,40,36,33,31,79,59,38,30.17,30.12,30.08,10,10,10,35,17,40,0.00,0,,1
2012-10-26,59,53,46,32,18,8,58,38,17,30.19,30.10,30.06,10,10,10,29,18,37,0.00,0,,68
2012-10-27,70,60,49,19,13,6,19,16,12,30.06,30.01,29.97,10,10,10,24,16,32,0.00,0,,70
2012-10-28,74,67,59,20,17,13,20,15,10,30.19,30.01,29.98,10,10,10,17,9,23,0.00,0,,70
2012-10-29,78,69,60,20,17,13,20,15,9,30.23,30.07,30.03,10,10,10,14,8,20,0.00,0,,314
2012-10-30,76,68,59,21,17,11,20,16,11,30.08,30.03,30.00,10,10,10,15,8,,0.00,0,,215
2012-10-31,74,64,53,23,15,10,28,20,12,30.03,29.99,29.96,10,10,10,20,10,25,0.00,0,,194